createdAt,value
2023-05-06T19:16:53.497Z,92.80
2023-05-06T19:19:21.504Z,93.30
2023-05-06T19:21:49.548Z,93.10
2023-05-06T19:24:17.410Z,93.00
2023-05-06T19:26:46.031Z,92.90
2023-05-06T19:29:14.693Z,93.10
2023-05-06T19:31:42.604Z,93.20
2023-05-06T19:34:11.875Z,93.30
2023-05-06T19:36:39.911Z,93.30
2023-05-06T19:39:08.244Z,93.20
2023-05-06T19:41:36.486Z,93.30
2023-05-06T19:44:04.468Z,93.30
2023-05-06T19:46:32.465Z,93.30
2023-05-06T19:49:01.010Z,93.30
2023-05-06T19:51:30.272Z,93.30
2023-05-06T19:53:58.123Z,93.20
2023-05-06T19:56:26.394Z,93.20
2023-05-06T19:58:54.552Z,93.20
2023-05-06T20:01:23.828Z,93.10
2023-05-06T20:03:51.885Z,93.10
2023-05-06T20:06:19.800Z,93.10
2023-05-06T20:08:49.185Z,93.10
2023-05-06T20:11:17.041Z,93.10
2023-05-06T20:13:45.282Z,93.10
2023-05-06T20:16:13.459Z,93.10
2023-05-06T20:18:42.783Z,93.40
2023-05-06T20:21:10.680Z,93.20
2023-05-06T20:23:38.610Z,93.20
2023-05-06T20:26:07.858Z,93.20
2023-05-06T20:28:38.987Z,93.10
2023-05-06T20:31:07.305Z,93.20
2023-05-06T20:33:35.291Z,93.20
2023-05-06T20:36:03.913Z,93.20
2023-05-06T20:38:31.815Z,93.20
2023-05-06T20:41:02.660Z,93.10
2023-05-06T20:43:35.088Z,93.20
2023-05-06T20:46:03.216Z,93.30
2023-05-06T20:48:32.015Z,93.20
2023-05-06T20:51:00.092Z,93.20
2023-05-06T20:53:28.022Z,93.20
2023-05-06T20:55:55.929Z,93.30
2023-05-06T20:58:23.960Z,93.30
2023-05-06T21:00:53.333Z,93.20
2023-05-06T21:03:21.579Z,93.20
2023-05-06T21:05:49.662Z,93.30
2023-05-06T21:08:18.041Z,93.20
2023-05-06T21:10:45.901Z,93.30
2023-05-06T21:13:13.831Z,93.20
2023-05-06T21:15:41.769Z,93.60
2023-05-06T21:18:11.115Z,93.30
2023-05-06T21:20:39.061Z,93.40
2023-05-06T21:23:07.001Z,93.40
2023-05-06T21:25:35.035Z,93.40
2023-05-06T21:28:06.135Z,93.40
2023-05-06T21:30:36.424Z,93.40
2023-05-06T21:33:05.042Z,93.40
2023-05-06T21:35:34.472Z,93.40
2023-05-06T21:38:02.473Z,93.30
2023-05-06T21:40:30.525Z,93.30
2023-05-06T21:42:58.479Z,93.40
2023-05-06T21:45:26.485Z,93.40
2023-05-06T21:47:54.547Z,93.50
2023-05-06T21:50:23.781Z,93.60
2023-05-06T21:52:53.042Z,93.70
2023-05-06T21:55:20.934Z,93.70
2023-05-06T21:57:48.802Z,93.60
2023-05-06T22:00:17.297Z,93.60
2023-05-06T22:02:46.825Z,93.60
2023-05-06T22:05:14.870Z,93.60
2023-05-06T22:07:42.816Z,93.60
2023-05-06T22:10:13.420Z,93.60
2023-05-06T22:12:41.335Z,93.40
2023-05-06T22:15:11.552Z,93.60
2023-05-06T22:17:39.665Z,93.80
2023-05-06T22:20:11.113Z,93.60
2023-05-06T22:22:39.575Z,93.60
2023-05-06T22:25:08.853Z,93.70
2023-05-06T22:27:38.490Z,93.70
2023-05-06T22:30:08.063Z,93.60
2023-05-06T22:32:36.206Z,93.60
2023-05-06T22:35:04.277Z,93.70
2023-05-06T22:37:33.678Z,93.70
2023-05-06T22:40:01.716Z,93.80
2023-05-06T22:42:29.581Z,93.80
2023-05-06T22:44:58.831Z,93.80
2023-05-06T22:47:26.770Z,93.70
2023-05-06T22:49:54.702Z,93.80
2023-05-06T22:52:22.978Z,93.70
2023-05-06T22:54:51.244Z,93.80
2023-05-06T22:57:22.777Z,93.80
2023-05-06T22:59:50.682Z,93.80
2023-05-06T23:02:19.929Z,93.80
2023-05-06T23:04:47.930Z,93.80
2023-05-06T23:07:16.460Z,93.80
2023-05-06T23:09:44.615Z,93.80
2023-05-06T23:12:12.538Z,93.80
2023-05-06T23:14:40.781Z,93.80
2023-05-06T23:17:08.910Z,93.80
2023-05-06T23:19:38.221Z,93.80
2023-05-06T23:22:06.099Z,93.80
2023-05-06T23:24:34.213Z,93.80
2023-05-06T23:27:02.290Z,93.90
2023-05-06T23:29:30.195Z,94.10
2023-05-06T23:31:58.085Z,94.10
2023-05-06T23:34:26.184Z,94.10
2023-05-06T23:36:56.612Z,94.00
2023-05-06T23:39:24.682Z,93.80
